Data for 01/02/2008

Time Sea-Level Adjusted Pressure Absolute Pressure Temperature Relative Humidity Dew Point   
(mb) (inHg) (mb) (inHg) (C) (F) (%) (C) (F)
00:05 1028 30.36 857 25.31 -9.8 14.4 56 -17.1 1.3
00:10 1028 30.36 857 25.31 -10.1 13.8 56 -17.3 0.9
00:15 1028 30.36 857 25.31 -10.3 13.5 60 -16.7 2
00:20 1028 30.36 857 25.31 -10.4 13.2 58 -17.2 1.1
00:25 1028 30.36 857 25.31 -10.5 13.1 58 -17.3 0.8
00:30 1028 30.36 857 25.31 -10.5 13.2 56 -17.7 0.2
00:35 1027 30.33 857 25.31 -10.4 13.2 55 -17.7 0.1
00:40 1027 30.33 857 25.31 -10.3 13.5 54 -17.9 -0.2
00:45 1027 30.33 856 25.28 -10.3 13.4 55 -17.8 -0
00:50 1027 30.33 856 25.28 -10.4 13.3 55 -17.7 0.1
00:55 1027 30.33 856 25.28 -10.8 12.5 58 -17.6 0.2
01:00 1027 30.33 856 25.28 -11 12.3 58 -17.8 -0
01:05 1027 30.33 856 25.28 -10.9 12.3 58 -17.7 0.2
01:10 1027 30.33 856 25.28 -11.4 11.5 60 -17.6 0.3
01:15 1027 30.33 856 25.28 -11.7 11 61 -17.8 -0
01:20 1027 30.33 856 25.28 -11.5 11.2 60 -17.9 -0.2
01:25 1026 30.3 856 25.28 -11.3 11.7 59 -17.9 -0.1
01:30 1026 30.3 856 25.28 -11.1 12 58 -17.8 0
01:35 1026 30.3 855 25.25 -10.7 12.7 55 -18 -0.4
01:40 1026 30.3 855 25.25 -10 14 54 -17.6 0.4
01:45 1026 30.3 855 25.25 -10.1 13.8 54 -17.7 0.2
01:50 1026 30.3 855 25.25 -10.1 13.9 56 -17.3 0.9
01:55 1026 30.3 855 25.25 -10.1 13.8 57 -17.1 1.2
02:00 1026 30.3 855 25.25 -10.9 12.4 61 -16.9 1.5
02:05 1026 30.3 855 25.25 -11.3 11.7 62 -17.2 1
02:10 1026 30.3 855 25.25 -11.3 11.7 60 -17.6 0.4
02:15 1026 30.3 855 25.25 -10.2 13.6 56 -17.5 0.6
02:20 1026 30.3 855 25.25 -9.7 14.6 57 -16.8 1.8
02:25 1026 30.3 855 25.25 -9.9 14.2 62 -16 3.2
02:30 1026 30.3 855 25.25 -10 14 60 -16.3 2.6
02:35 1026 30.3 855 25.25 -9.4 15 60 -15.9 3.5
02:40 1025 30.27 855 25.25 -9.6 14.7 61 -15.7 3.7
02:45 1025 30.27 855 25.25 -9.8 14.3 64 -15.5 4.2
02:50 1025 30.27 855 25.25 -10 14.1 64 -15.6 4
02:55 1025 30.27 855 25.25 -9.7 14.5 61 -15.9 3.4
03:00 1025 30.27 855 25.25 -9.7 14.6 60 -16.1 3.1
03:05 1025 30.27 855 25.25 -9.5 14.8 62 -15.5 4.1
03:10 1025 30.27 855 25.25 -9.4 15.1 60 -15.8 3.6
03:15 1025 30.27 854 25.22 -9.6 14.6 63 -15.5 4.1
03:20 1025 30.27 854 25.22 -10.2 13.6 65 -15.6 3.9
03:25 1025 30.27 854 25.22 -10.7 12.7 66 -15.9 3.4
03:30 1025 30.27 854 25.22 -10.5 13 63 -16.4 2.5
03:35 1025 30.27 854 25.22 -10.5 13.2 64 -16 3.3
03:40 1025 30.27 854 25.22 -10.9 12.4 68 -15.7 3.7
03:45 1025 30.27 854 25.22 -11.2 11.8 71 -15.6 4
03:50 1025 30.27 854 25.22 -11.3 11.6 71 -15.7 3.8
03:55 1025 30.27 854 25.22 -11.4 11.5 70 -15.8 3.6
04:00 1025 30.27 854 25.22 -11.4 11.6 71 -15.6 3.9
04:05 1025 30.27 854 25.22 -11 12.2 69 -15.7 3.8
04:10 1025 30.27 854 25.22 -10.6 12.9 67 -15.6 3.9
04:15 1025 30.27 854 25.22 -10.2 13.7 67 -15.2 4.7
04:20 1025 30.27 854 25.22 -10.2 13.7 65 -15.6 4
04:25 1025 30.27 854 25.22 -10.1 13.7 65 -15.5 4.1
04:30 1025 30.27 854 25.22 -10.5 13.1 66 -15.6 3.9
04:35 1024 30.24 854 25.22 -11.1 12 71 -15.4 4.2
04:40 1024 30.24 854 25.22 -11.4 11.5 71 -15.7 3.8
04:45 1024 30.24 853 25.19 -12.1 10.3 72 -16.1 3
04:50 1024 30.24 853 25.19 -11.3 11.7 64 -16.8 1.7
04:55 1024 30.24 853 25.19 -10.4 13.3 62 -16.4 2.5
05:00 1024 30.24 853 25.19 -9.8 14.3 61 -16.1 3
05:05 1024 30.24 853 25.19 -9.4 15 60 -15.9 3.4
05:10 1024 30.24 853 25.19 -9.3 15.3 59 -15.8 3.5
05:15 1024 30.24 853 25.19 -9.4 15.1 59 -16.1 3
05:20 1024 30.24 853 25.19 -9.9 14.2 60 -16.2 2.9
05:25 1024 30.24 853 25.19 -10.2 13.6 60 -16.5 2.3
05:30 1024 30.24 853 25.19 -10.3 13.4 60 -16.7 2
05:35 1024 30.24 853 25.19 -10.1 13.8 60 -16.6 2.2
05:40 1024 30.24 853 25.19 -9.9 14.3 59 -16.5 2.3
05:45 1024 30.24 853 25.19 -9.8 14.3 59 -16.4 2.5
05:50 1024 30.24 853 25.19 -9.9 14.2 60 -16.2 2.8
05:55 1024 30.24 853 25.19 -9.8 14.4 58 -16.5 2.3
06:00 1024 30.24 853 25.19 -9.8 14.3 59 -16.4 2.5
06:05 1024 30.24 853 25.19 -9.9 14.1 60 -16.4 2.5
06:10 1023 30.21 853 25.19 -10.2 13.7 65 -15.7 3.8
06:15 1023 30.21 852 25.16 -10.4 13.3 62 -16.3 2.6
06:20 1023 30.21 852 25.16 -10.2 13.7 59 -16.7 1.9
06:25 1023 30.21 852 25.16 -10.1 13.8 60 -16.4 2.5
06:30 1023 30.21 852 25.16 -10 13.9 58 -16.8 1.8
06:35 1023 30.21 852 25.16 -9.9 14.1 60 -16.3 2.6
06:40 1023 30.21 852 25.16 -9.6 14.7 57 -16.6 2.1
06:45 1023 30.21 852 25.16 -9.2 15.4 57 -16.3 2.7
06:50 1023 30.21 852 25.16 -8.9 15.9 56 -16.3 2.7
06:55 1023 30.21 852 25.16 -8.6 16.4 55 -16.2 2.9
07:00 1022 30.18 852 25.16 -8.5 16.8 55 -16 3.2
07:05 1022 30.18 852 25.16 -8.6 16.6 57 -15.7 3.8
07:10 1022 30.18 852 25.16 -8.7 16.4 62 -14.8 5.4
07:15 1022 30.18 851 25.13 -8.8 16.3 58 -15.7 3.8
07:20 1022 30.18 851 25.13 -8.6 16.6 61 -14.8 5.3
07:25 1022 30.18 851 25.13 -8.9 16 61 -15 5
07:30 1022 30.18 851 25.13 -8.6 16.4 60 -15.1 4.7
07:35 1022 30.18 851 25.13 -8.3 17.2 58 -15.1 4.8
07:40 1022 30.18 851 25.13 -8.6 16.5 58 -15.4 4.3
07:45 1022 30.18 851 25.13 -8.3 17.1 59 -15 5.1
07:50 1022 30.18 851 25.13 -8 17.5 58 -14.9 5.3
07:55 1022 30.18 851 25.13 -8.1 17.4 60 -14.6 5.7
08:00 1022 30.18 851 25.13 -8.2 17.2 61 -14.4 6.1
08:05 1022 30.18 851 25.13 -8.4 16.9 64 -14.1 6.6
08:10 1022 30.18 851 25.13 -8.9 16 66 -14.2 6.4
08:15 1022 30.18 851 25.13 -9.6 14.8 68 -14.4 6
08:20 1022 30.18 851 25.13 -10 14 71 -14.4 6.2
08:25 1022 30.18 851 25.13 -9.9 14.1 66 -15.2 4.6
08:30 1022 30.18 851 25.13 -9.3 15.2 64 -14.9 5.2
08:35 1021 30.15 851 25.13 -8.8 16.1 62 -14.9 5.2
08:40 1021 30.15 850 25.1 -8.4 16.9 61 -14.7 5.6
08:45 1021 30.15 850 25.1 -8.5 16.8 55 -15.9 3.3
08:50 1021 30.15 850 25.1 -8.1 17.4 59 -14.8 5.3
08:55 1021 30.15 850 25.1 -8.5 16.7 55 -15.9 3.4
09:00 1021 30.15 850 25.1 -8.4 17 54 -16.1 2.9
09:05 1021 30.15 850 25.1 -7.9 17.9 51 -16.2 2.8
09:10 1021 30.15 850 25.1 -7.4 18.7 50 -16.1 3.1
09:15 1021 30.15 850 25.1 -7.4 18.7 51 -15.8 3.5
09:20 1021 30.15 850 25.1 -8.1 17.5 57 -15.1 4.8
09:25 1021 30.15 850 25.1 -7.8 18 50 -16.6 2.2
09:30 1020 30.12 850 25.1 -7.4 18.7 55 -15 5
09:35 1020 30.12 850 25.1 -7.5 18.5 55 -15.1 4.9
09:40 1020 30.12 850 25.1 -7 19.3 56 -14.5 5.9
09:45 1020 30.12 850 25.1 -6.8 19.7 55 -14.4 6.2
09:50 1020 30.12 849 25.07 -6.3 20.6 56 -13.6 7.5
09:55 1020 30.12 850 25.1 -5.8 21.6 54 -13.6 7.5
10:00 1020 30.12 850 25.1 -5.2 22.6 52 -13.6 7.5
10:05 1020 30.12 850 25.1 -5.7 21.7 54 -13.6 7.5
10:10 1020 30.12 850 25.1 -6.1 21 52 -14.4 6.2
10:15 1020 30.12 850 25.1 -5.9 21.3 52 -14.2 6.4
10:20 1020 30.12 849 25.07 -6.5 20.3 55 -14.3 6.3
10:25 1020 30.12 849 25.07 -6.7 20 55 -14.4 6.1
10:30 1020 30.12 849 25.07 -6.4 20.4 54 -14.2 6.4
10:35 1020 30.12 849 25.07 -6.3 20.7 56 -13.6 7.5
10:40 1020 30.12 849 25.07 -6.9 19.6 58 -13.9 7.1
10:45 1020 30.12 849 25.07 -6.8 19.8 59 -13.6 7.6
10:50 1020 30.12 849 25.07 -6.8 19.7 59 -13.5 7.6
10:55 1020 30.12 849 25.07 -6.8 19.8 58 -13.7 7.4
11:00 1020 30.12 849 25.07 -6.6 20.2 57 -13.6 7.5
11:05 1020 30.12 849 25.07 -6.5 20.3 58 -13.4 7.9
11:10 1019 30.09 849 25.07 -6.9 19.5 60 -13.5 7.8
11:15 1019 30.09 848 25.04 -7 19.4 59 -13.6 7.5
11:20 1019 30.09 848 25.04 -7.1 19.2 60 -13.6 7.5
11:25 1019 30.09 848 25.04 -7 19.4 59 -13.7 7.4
11:30 1019 30.09 848 25.04 -6.7 19.9 59 -13.5 7.7
11:35 1019 30.09 848 25.04 -6.6 20.1 59 -13.4 7.9
11:40 1019 30.09 848 25.04 -6.2 20.8 57 -13.4 7.9
11:45 1019 30.09 848 25.04 -6 21.3 56 -13.3 8.1
11:50 1018 30.06 848 25.04 -6 21.2 56 -13.5 7.7
11:55 1019 30.09 848 25.04 -5.8 21.6 54 -13.6 7.5
12:00 1018 30.06 848 25.04 -5.4 22.3 55 -13.1 8.3
12:05 1018 30.06 847 25.01 -5 23 53 -13.1 8.4
12:10 1018 30.06 847 25.01 -4.7 23.5 52 -13.1 8.5
12:15 1018 30.06 847 25.01 -4.6 23.8 53 -12.7 9.1
12:20 1018 30.06 847 25.01 -4.4 24.1 52 -12.8 8.9
12:25 1018 30.06 847 25.01 -4.2 24.4 52 -12.6 9.3
12:30 1018 30.06 847 25.01 -4.2 24.5 52 -12.6 9.3
12:35 1018 30.06 847 25.01 -4.2 24.5 53 -12.5 9.5
12:40 1018 30.06 847 25.01 -4.5 24 54 -12.4 9.7
12:45 1018 30.06 847 25.01 -5 23 57 -12.2 10.1
12:50 1018 30.06 847 25.01 -5.1 22.9 53 -13.1 8.4
12:55 1018 30.06 847 25.01 -4.7 23.5 51 -13.5 7.7
13:00 1018 30.06 847 25.01 -4.3 24.2 49 -13.4 7.8
13:05 1018 30.06 847 25.01 -3.2 26.3 47 -13 8.6
13:10 1018 30.06 847 25.01 -1.9 28.5 43 -12.9 8.8
13:15 1018 30.06 847 25.01 -1 30.2 40 -13 8.6
13:20 1018 30.06 847 25.01 -1.2 29.9 37 -14.1 6.6
13:25 1018 30.06 847 25.01 -0.9 30.5 37 -13.8 7.1
13:30 1017 30.03 847 25.01 -0.2 31.7 34 -14.3 6.3
13:35 1017 30.03 846 24.98 0.4 32.7 32 -14.4 6.1
13:40 1017 30.03 846 24.98 0.1 32.2 34 -14 6.8
13:45 1017 30.03 846 24.98 -0.2 31.7 32 -14.9 5.2
13:50 1017 30.03 846 24.98 0.3 32.6 31 -14.8 5.3
13:55 1017 30.03 846 24.98 0.7 33.2 31 -14.5 5.8
14:00 1017 30.03 846 24.98 1.2 34.1 30 -14.7 5.5
14:05 1017 30.03 846 24.98 1.5 34.8 33 -13.3 8.1
14:10 1017 30.03 846 24.98 2.5 36.4 29 -13.7 7.3
14:15 1017 30.03 846 24.98 2.4 36.3 31 -13.3 8
14:20 1017 30.03 846 24.98 2.9 37.2 29 -13.5 7.7
14:25 1017 30.03 846 24.98 2.6 36.7 29 -13.6 7.5
14:30 1017 30.03 846 24.98 2.4 36.4 29 -13.8 7.2
14:35 1017 30.03 846 24.98 1.7 35 32 -13.2 8.3
14:40 1016 30 846 24.98 1.7 35 30 -14.2 6.5
14:45 1016 30 846 24.98 1.7 35.1 31 -13.9 7.1
14:50 1016 30 845 24.95 1.8 35.2 31 -13.8 7.2
14:55 1016 30 845 24.95 2 35.6 31 -13.6 7.6
15:00 1016 30 845 24.95 2.4 36.3 28 -14.5 5.9
15:05 1016 30 845 24.95 2.9 37.1 29 -13.6 7.4
15:10 1016 30 845 24.95 3.3 37.9 26 -14.3 6.2
15:15 1016 30 845 24.95 4.1 39.4 25 -14.4 6
15:20 1016 30 845 24.95 4.5 40.2 25 -13.7 7.4
15:25 1016 30 845 24.95 5.3 41.6 27 -12.1 10.1
15:30 1016 30 845 24.95 5 41 26 -12.9 8.8
15:35 1016 30 845 24.95 4.4 39.8 28 -12.7 9.1
15:40 1016 30 845 24.95 4.8 40.6 28 -12.1 10.2
15:45 1016 30 845 24.95 4.9 40.8 32 -10.6 12.9
15:50 1016 30 845 24.95 4.6 40.3 33 -10.5 13.1
15:55 1016 30 845 24.95 3.7 38.7 33 -11.2 11.9
16:00 1016 30 845 24.95 3 37.4 34 -11.6 11.2
16:05 1016 30 845 24.95 2.7 36.8 34 -11.5 11.3
16:10 1016 30 845 24.95 2.6 36.6 36 -11.1 12.1
16:15 1016 30 845 24.95 2.3 36.2 37 -10.8 12.5
16:20 1016 30 845 24.95 2 35.6 36 -11.6 11
16:25 1016 30 845 24.95 1.8 35.3 36 -11.9 10.6
16:30 1016 30 845 24.95 1.4 34.5 42 -10.2 13.7
16:35 1016 30 845 24.95 0.9 33.6 39 -11.6 11.2
16:40 1016 30 845 24.95 0.9 33.6 39 -11.5 11.4
16:45 1016 30 845 24.95 0.7 33.2 39 -11.8 10.7
16:50 1016 30 845 24.95 0.7 33.3 35 -13 8.6
16:55 1016 30 845 24.95 1.1 34 35 -12.9 8.8
17:00 1016 30 845 24.95 1.2 34.2 36 -12.3 9.9
17:05 1016 30 845 24.95 1.3 34.3 39 -11.3 11.6
17:10 1016 30 845 24.95 0.5 32.9 45 -10 13.9
17:15 1016 30 845 24.95 -0 32 42 -11.5 11.3
17:20 1016 30 845 24.95 0.3 32.5 42 -11.3 11.7
17:25 1016 30 845 24.95 0.4 32.7 45 -10.2 13.6
17:30 1016 30 845 24.95 0.2 32.4 47 -9.8 14.4
17:35 1016 30 845 24.95 -0 31.9 47 -10 14
17:40 1016 30 845 24.95 -0.3 31.5 48 -10 14
17:45 1016 30 845 24.95 -0.5 31 50 -9.8 14.4
17:50 1016 30 845 24.95 -0.9 30.4 53 -9.4 15
17:55 1016 30 845 24.95 -1.4 29.5 53 -9.7 14.5
18:00 1016 30 845 24.95 -1.9 28.6 55 -9.8 14.4
18:05 1016 30 845 24.95 -2.2 28.1 53 -10.5 13.1
18:10 1016 30 845 24.95 -2.2 28.1 52 -10.8 12.6
18:15 1016 30 845 24.95 -1.8 28.7 51 -10.8 12.5
18:20 1016 30 845 24.95 -1.6 29.1 47 -11.5 11.3
18:25 1016 30 845 24.95 -0.8 30.6 44 -11.6 11.1
18:30 1016 30 845 24.95 -0.5 31 41 -12.2 10.1
18:35 1016 30 845 24.95 -0.1 31.9 40 -12 10.4
18:40 1016 30 845 24.95 -0.2 31.6 40 -12.2 10.1
18:45 1016 30 845 24.95 -0.4 31.3 43 -11.6 11.1
18:50 1016 30 845 24.95 -0.9 30.4 43 -11.8 10.7
18:55 1016 30 845 24.95 -1 30.2 43 -11.9 10.5
19:00 1016 30 845 24.95 -1 30.2 46 -11.3 11.6
19:05 1016 30 845 24.95 -0.7 30.7 48 -10.4 13.3
19:10 1016 30 845 24.95 -0.2 31.6 42 -11.8 10.8
19:15 1016 30 845 24.95 -0.9 30.3 50 -10.2 13.7
19:20 1016 30 845 24.95 -1.7 29 50 -10.8 12.6
19:25 1016 30 845 24.95 -2 28.4 47 -11.9 10.7
19:30 1016 30 845 24.95 -1.9 28.5 48 -11.6 11.1
19:35 1016 30 845 24.95 -1.5 29.3 46 -11.7 10.9
19:40 1016 30 845 24.95 -1.4 29.4 45 -12 10.4
19:45 1015 29.97 845 24.95 -1.8 28.8 47 -11.8 10.8
19:50 1016 30 845 24.95 -2 28.4 47 -11.9 10.6
19:55 1016 30 845 24.95 -1.9 28.5 47 -11.9 10.7
20:00 1016 30 845 24.95 -1.7 28.9 47 -11.6 11.2
20:05 1016 30 845 24.95 -1.8 28.7 46 -11.9 10.6
20:10 1015 29.97 845 24.95 -1.7 28.9 49 -11.2 11.9
20:15 1015 29.97 845 24.95 -2 28.4 48 -11.7 11
20:20 1015 29.97 845 24.95 -1.6 29.1 46 -11.8 10.8
20:25 1015 29.97 845 24.95 -1.5 29.4 46 -11.5 11.2
20:30 1015 29.97 845 24.95 -1.7 29 46 -11.8 10.8
20:35 1015 29.97 845 24.95 -1.8 28.8 48 -11.4 11.5
20:40 1015 29.97 844 24.92 -1.8 28.7 46 -12 10.3
20:45 1015 29.97 844 24.92 -1.8 28.8 46 -11.9 10.7
20:50 1015 29.97 844 24.92 -1.7 28.9 48 -11.4 11.6
20:55 1015 29.97 844 24.92 -1.8 28.8 47 -11.6 11.1
21:00 1015 29.97 844 24.92 -2 28.4 44 -12.6 9.3
21:05 1015 29.97 844 24.92 -1.8 28.7 44 -12.5 9.5
21:10 1015 29.97 844 24.92 -1.6 29 43 -12.6 9.3
21:15 1015 29.97 844 24.92 -1.6 29.2 42 -12.8 9
21:20 1015 29.97 844 24.92 -1.5 29.3 42 -12.8 9
21:25 1015 29.97 844 24.92 -1.5 29.3 44 -12.3 9.8
21:30 1015 29.97 844 24.92 -1.4 29.5 44 -12.2 10
21:35 1015 29.97 844 24.92 -0.9 30.3 43 -12.1 10.2
21:40 1015 29.97 844 24.92 -0.8 30.5 41 -12.4 9.7
21:45 1015 29.97 844 24.92 -0.6 30.9 40 -12.5 9.5
21:50 1015 29.97 844 24.92 -0.1 31.8 39 -12.6 9.4
21:55 1015 29.97 844 24.92 0.2 32.4 36 -13.1 8.4
22:00 1015 29.97 844 24.92 0.2 32.4 39 -12.1 10.3
22:05 1015 29.97 844 24.92 0.2 32.3 39 -12.2 10
22:10 1015 29.97 844 24.92 -0 31.9 38 -12.6 9.3
22:15 1015 29.97 844 24.92 0.1 32.2 38 -12.6 9.3
22:20 1015 29.97 844 24.92 0.5 33 42 -11 12.2
22:25 1015 29.97 844 24.92 0.3 32.6 44 -10.7 12.8
22:30 1014 29.94 844 24.92 0.1 32.1 46 -10.1 13.8
22:35 1014 29.94 844 24.92 -0.5 31.2 48 -10.3 13.5
22:40 1014 29.94 844 24.92 -0.8 30.7 50 -9.9 14.1
22:45 1014 29.94 844 24.92 -0.9 30.4 51 -9.7 14.5
22:50 1015 29.97 844 24.92 -1.1 30 52 -9.7 14.6
22:55 1015 29.97 844 24.92 -1.3 29.7 52 -9.8 14.3
23:00 1014 29.94 844 24.92 -0.9 30.3 47 -11 12.2
23:05 1014 29.94 844 24.92 -0.4 31.2 44 -11.4 11.5
23:10 1015 29.97 844 24.92 -0.3 31.5 43 -11.4 11.5
23:15 1015 29.97 844 24.92 -0.2 31.7 41 -11.9 10.6
23:20 1015 29.97 844 24.92 -0.2 31.7 42 -11.7 11
23:25 1015 29.97 844 24.92 -0 32 40 -12.2 10
23:30 1015 29.97 844 24.92 0.5 32.8 40 -11.6 11.1
23:35 1015 29.97 844 24.92 0.2 32.3 42 -11.3 11.6
23:40 1015 29.97 844 24.92 -0 32 42 -11.4 11.5
23:45 1015 29.97 844 24.92 -0.2 31.6 43 -11.4 11.5
23:50 1015 29.97 844 24.92 -0.3 31.4 42 -11.6 11
23:55 1015 29.97 844 24.92 -0.1 31.8 39 -12.6 9.3
24:00 1015 29.97 844 24.92 0.2 32.4 42 -11.1 11.9